KUKT/UKT METAR and TAF weather

Enter ICAO airport designator
Station Type Date Time Source
KUKT METAR 2021/09/16 10:15 UTC NOAA

KUKT 161015Z AUTO 00000KT 10SM CLR 19/19 A3012 RMK A01


Station Type Date Time Source
KUKT Decoded METAR 2021/09/16 10:15 UTC NOAA

Quakertown, Quakertown Airport, PA, United States (KUKT) 40-26-06N 075-22-54W
Sep 16, 2021 - 06:15 AM EDT / 2021.09.16 1015 UTC
Wind: Calm:0
Visibility: 10 mile(s):0
Sky conditions: clear
Temperature: 66 F (19 C)
Dew Point: 66 F (19 C)
Relative Humidity: 100%
Pressure (altimeter): 30.12 in. Hg (1019 hPa)
ob: KUKT 161015Z AUTO 00000KT 10SM CLR 19/19 A3012 RMK A01
cycle: 10

Station Type Date Time Source
KUKT TAF UTC NOAA

Error!

Example: see airport list